sensor_id;sensor_type;location;lat;lon;timestamp;P1;durP1;ratioP1;P2;durP2;ratioP2
4521;SDS011;2273;48.464;11.926;2023-03-01T00:01:14;31.03;;;17.50;;
4521;SDS011;2273;48.464;11.926;2023-03-01T00:03:41;27.60;;;17.33;;
4521;SDS011;2273;48.464;11.926;2023-03-01T00:06:07;30.20;;;17.20;;
4521;SDS011;2273;48.464;11.926;2023-03-01T00:08:33;32.03;;;17.70;;
4521;SDS011;2273;48.464;11.926;2023-03-01T00:11:02;27.57;;;17.07;;
4521;SDS011;2273;48.464;11.926;2023-03-01T00:13:29;30.40;;;16.55;;
4521;SDS011;2273;48.464;11.926;2023-03-01T00:15:54;29.33;;;17.30;;
4521;SDS011;2273;48.464;11.926;2023-03-01T00:18:20;29.80;;;17.80;;
4521;SDS011;2273;48.464;11.926;2023-03-01T00:20:51;28.07;;;16.60;;
4521;SDS011;2273;48.464;11.926;2023-03-01T00:23:18;29.70;;;17.35;;
4521;SDS011;2273;48.464;11.926;2023-03-01T00:25:43;29.73;;;17.47;;
4521;SDS011;2273;48.464;11.926;2023-03-01T00:28:09;30.33;;;15.47;;
4521;SDS011;2273;48.464;11.926;2023-03-01T00:30:34;32.67;;;17.33;;
4521;SDS011;2273;48.464;11.926;2023-03-01T00:33:00;24.17;;;15.03;;
4521;SDS011;2273;48.464;11.926;2023-03-01T00:35:25;30.47;;;17.63;;
4521;SDS011;2273;48.464;11.926;2023-03-01T00:37:50;33.90;;;17.30;;
4521;SDS011;2273;48.464;11.926;2023-03-01T00:40:23;27.52;;;15.88;;
4521;SDS011;2273;48.464;11.926;2023-03-01T00:42:49;31.17;;;16.88;;
4521;SDS011;2273;48.464;11.926;2023-03-01T00:45:14;27.63;;;16.23;;
4521;SDS011;2273;48.464;11.926;2023-03-01T00:47:40;31.70;;;16.40;;
4521;SDS011;2273;48.464;11.926;2023-03-01T00:50:06;35.30;;;16.95;;
4521;SDS011;2273;48.464;11.926;2023-03-01T00:52:32;29.70;;;17.03;;
4521;SDS011;2273;48.464;11.926;2023-03-01T00:54:57;33.97;;;17.27;;
4521;SDS011;2273;48.464;11.926;2023-03-01T00:57:23;28.53;;;16.70;;
4521;SDS011;2273;48.464;11.926;2023-03-01T00:59:48;29.40;;;16.80;;
4521;SDS011;2273;48.464;11.926;2023-03-01T01:02:14;30.53;;;16.73;;
4521;SDS011;2273;48.464;11.926;2023-03-01T01:04:39;33.47;;;17.50;;
4521;SDS011;2273;48.464;11.926;2023-03-01T01:07:05;27.67;;;16.47;;
4521;SDS011;2273;48.464;11.926;2023-03-01T01:09:30;26.33;;;16.30;;
4521;SDS011;2273;48.464;11.926;2023-03-01T01:11:56;27.40;;;16.13;;
4521;SDS011;2273;48.464;11.926;2023-03-01T01:14:21;28.67;;;16.13;;
4521;SDS011;2273;48.464;11.926;2023-03-01T01:16:47;27.87;;;16.47;;
4521;SDS011;2273;48.464;11.926;2023-03-01T01:19:13;30.33;;;16.63;;
4521;SDS011;2273;48.464;11.926;2023-03-01T01:21:39;33.40;;;17.38;;
4521;SDS011;2273;48.464;11.926;2023-03-01T01:24:08;25.88;;;16.20;;
4521;SDS011;2273;48.464;11.926;2023-03-01T01:26:34;25.90;;;16.90;;
4521;SDS011;2273;48.464;11.926;2023-03-01T01:29:00;27.73;;;16.67;;
4521;SDS011;2273;48.464;11.926;2023-03-01T01:31:27;27.75;;;16.40;;
4521;SDS011;2273;48.464;11.926;2023-03-01T01:33:53;29.00;;;16.63;;
4521;SDS011;2273;48.464;11.926;2023-03-01T01:36:19;24.37;;;15.90;;
4521;SDS011;2273;48.464;11.926;2023-03-01T01:38:45;29.05;;;16.80;;
4521;SDS011;2273;48.464;11.926;2023-03-01T01:41:11;25.93;;;16.17;;
4521;SDS011;2273;48.464;11.926;2023-03-01T01:43:39;26.52;;;15.70;;
4521;SDS011;2273;48.464;11.926;2023-03-01T01:46:12;29.25;;;16.58;;
4521;SDS011;2273;48.464;11.926;2023-03-01T01:48:41;33.92;;;16.73;;
4521;SDS011;2273;48.464;11.926;2023-03-01T01:51:12;25.92;;;15.63;;
4521;SDS011;2273;48.464;11.926;2023-03-01T01:53:39;26.33;;;15.20;;
4521;SDS011;2273;48.464;11.926;2023-03-01T01:56:05;26.93;;;17.43;;
4521;SDS011;2273;48.464;11.926;2023-03-01T01:58:32;27.27;;;16.17;;
4521;SDS011;2273;48.464;11.926;2023-03-01T02:00:58;26.33;;;16.37;;
4521;SDS011;2273;48.464;11.926;2023-03-01T02:03:27;31.13;;;17.83;;
4521;SDS011;2273;48.464;11.926;2023-03-01T02:08:26;30.02;;;17.92;;
4521;SDS011;2273;48.464;11.926;2023-03-01T02:10:52;29.50;;;16.90;;
4521;SDS011;2273;48.464;11.926;2023-03-01T02:13:20;30.40;;;17.33;;
4521;SDS011;2273;48.464;11.926;2023-03-01T02:15:46;30.60;;;17.80;;
4521;SDS011;2273;48.464;11.926;2023-03-01T02:18:13;31.67;;;16.40;;
4521;SDS011;2273;48.464;11.926;2023-03-01T02:23:24;30.67;;;17.60;;
4521;SDS011;2273;48.464;11.926;2023-03-01T02:28:50;26.67;;;16.30;;
4521;SDS011;2273;48.464;11.926;2023-03-01T02:31:18;28.70;;;15.93;;
4521;SDS011;2273;48.464;11.926;2023-03-01T02:34:03;30.30;;;16.92;;
4521;SDS011;2273;48.464;11.926;2023-03-01T02:36:37;29.05;;;17.70;;
4521;SDS011;2273;48.464;11.926;2023-03-01T02:39:06;27.98;;;16.67;;
4521;SDS011;2273;48.464;11.926;2023-03-01T02:41:36;32.63;;;18.83;;
4521;SDS011;2273;48.464;11.926;2023-03-01T02:44:03;26.70;;;16.45;;
4521;SDS011;2273;48.464;11.926;2023-03-01T02:46:29;31.08;;;16.80;;
4521;SDS011;2273;48.464;11.926;2023-03-01T02:48:55;29.40;;;17.47;;
4521;SDS011;2273;48.464;11.926;2023-03-01T02:54:18;31.60;;;17.33;;
4521;SDS011;2273;48.464;11.926;2023-03-01T02:56:46;29.00;;;16.25;;
4521;SDS011;2273;48.464;11.926;2023-03-01T02:59:18;31.83;;;17.10;;
4521;SDS011;2273;48.464;11.926;2023-03-01T03:01:45;30.05;;;16.80;;
4521;SDS011;2273;48.464;11.926;2023-03-01T03:04:13;32.93;;;17.30;;
4521;SDS011;2273;48.464;11.926;2023-03-01T03:06:44;30.17;;;16.63;;
4521;SDS011;2273;48.464;11.926;2023-03-01T03:09:10;28.73;;;16.67;;
4521;SDS011;2273;48.464;11.926;2023-03-01T03:11:36;28.70;;;17.23;;
4521;SDS011;2273;48.464;11.926;2023-03-01T03:14:04;31.83;;;16.65;;
4521;SDS011;2273;48.464;11.926;2023-03-01T03:16:30;30.52;;;17.45;;
4521;SDS011;2273;48.464;11.926;2023-03-01T03:18:56;28.77;;;17.10;;
4521;SDS011;2273;48.464;11.926;2023-03-01T03:21:30;29.92;;;17.02;;
4521;SDS011;2273;48.464;11.926;2023-03-01T03:23:58;28.73;;;17.15;;
4521;SDS011;2273;48.464;11.926;2023-03-01T03:26:23;27.63;;;16.80;;
4521;SDS011;2273;48.464;11.926;2023-03-01T03:28:49;33.10;;;18.73;;
4521;SDS011;2273;48.464;11.926;2023-03-01T03:31:14;29.57;;;17.40;;
4521;SDS011;2273;48.464;11.926;2023-03-01T03:33:40;31.37;;;18.60;;
4521;SDS011;2273;48.464;11.926;2023-03-01T03:36:05;30.67;;;16.10;;
4521;SDS011;2273;48.464;11.926;2023-03-01T03:38:31;34.40;;;18.10;;
4521;SDS011;2273;48.464;11.926;2023-03-01T03:41:03;32.47;;;17.27;;
4521;SDS011;2273;48.464;11.926;2023-03-01T03:43:31;32.13;;;18.45;;
4521;SDS011;2273;48.464;11.926;2023-03-01T03:45:57;30.08;;;16.77;;
4521;SDS011;2273;48.464;11.926;2023-03-01T03:48:23;30.87;;;17.17;;
4521;SDS011;2273;48.464;11.926;2023-03-01T03:50:50;30.77;;;17.52;;
4521;SDS011;2273;48.464;11.926;2023-03-01T03:53:16;34.15;;;17.90;;
4521;SDS011;2273;48.464;11.926;2023-03-01T03:55:42;36.73;;;19.07;;
4521;SDS011;2273;48.464;11.926;2023-03-01T03:58:09;34.03;;;18.10;;
4521;SDS011;2273;48.464;11.926;2023-03-01T04:00:36;30.33;;;17.45;;
4521;SDS011;2273;48.464;11.926;2023-03-01T04:03:03;30.60;;;18.33;;
4521;SDS011;2273;48.464;11.926;2023-03-01T04:05:29;30.03;;;17.53;;
4521;SDS011;2273;48.464;11.926;2023-03-01T04:07:54;31.40;;;18.07;;
4521;SDS011;2273;48.464;11.926;2023-03-01T04:10:27;31.50;;;18.08;;
4521;SDS011;2273;48.464;11.926;2023-03-01T04:12:53;30.98;;;17.73;;
4521;SDS011;2273;48.464;11.926;2023-03-01T04:15:21;29.23;;;17.30;;
4521;SDS011;2273;48.464;11.926;2023-03-01T04:17:49;29.20;;;18.05;;
4521;SDS011;2273;48.464;11.926;2023-03-01T04:20:16;35.60;;;18.92;;
4521;SDS011;2273;48.464;11.926;2023-03-01T04:22:50;32.33;;;17.77;;
4521;SDS011;2273;48.464;11.926;2023-03-01T04:25:16;32.50;;;17.45;;
4521;SDS011;2273;48.464;11.926;2023-03-01T04:27:41;29.60;;;17.80;;
4521;SDS011;2273;48.464;11.926;2023-03-01T04:30:07;30.03;;;17.50;;
4521;SDS011;2273;48.464;11.926;2023-03-01T04:32:34;35.55;;;19.42;;
4521;SDS011;2273;48.464;11.926;2023-03-01T04:34:59;28.83;;;17.20;;
4521;SDS011;2273;48.464;11.926;2023-03-01T04:37:25;37.20;;;18.40;;
4521;SDS011;2273;48.464;11.926;2023-03-01T04:39:51;36.00;;;18.57;;
4521;SDS011;2273;48.464;11.926;2023-03-01T04:42:17;31.73;;;17.23;;
4521;SDS011;2273;48.464;11.926;2023-03-01T04:44:43;33.00;;;16.90;;
4521;SDS011;2273;48.464;11.926;2023-03-01T04:47:09;33.20;;;18.50;;
4521;SDS011;2273;48.464;11.926;2023-03-01T04:49:34;29.30;;;17.83;;
4521;SDS011;2273;48.464;11.926;2023-03-01T04:52:00;34.90;;;18.73;;
4521;SDS011;2273;48.464;11.926;2023-03-01T04:54:32;30.65;;;17.42;;
4521;SDS011;2273;48.464;11.926;2023-03-01T04:56:59;31.13;;;17.00;;
4521;SDS011;2273;48.464;11.926;2023-03-01T04:59:25;32.42;;;19.15;;
4521;SDS011;2273;48.464;11.926;2023-03-01T05:01:51;34.10;;;18.10;;
4521;SDS011;2273;48.464;11.926;2023-03-01T05:04:17;32.45;;;17.63;;
4521;SDS011;2273;48.464;11.926;2023-03-01T05:06:43;33.93;;;19.27;;
4521;SDS011;2273;48.464;11.926;2023-03-01T05:09:09;31.33;;;18.48;;
4521;SDS011;2273;48.464;11.926;2023-03-01T05:11:36;30.90;;;18.17;;
4521;SDS011;2273;48.464;11.926;2023-03-01T05:14:03;32.40;;;18.23;;
4521;SDS011;2273;48.464;11.926;2023-03-01T05:16:29;33.63;;;17.40;;
4521;SDS011;2273;48.464;11.926;2023-03-01T05:18:56;39.22;;;19.05;;
4521;SDS011;2273;48.464;11.926;2023-03-01T05:21:22;33.85;;;18.42;;
4521;SDS011;2273;48.464;11.926;2023-03-01T05:23:48;32.43;;;18.60;;
4521;SDS011;2273;48.464;11.926;2023-03-01T05:26:13;34.20;;;18.33;;
4521;SDS011;2273;48.464;11.926;2023-03-01T05:28:40;34.95;;;17.63;;
4521;SDS011;2273;48.464;11.926;2023-03-01T05:31:05;30.53;;;18.60;;
4521;SDS011;2273;48.464;11.926;2023-03-01T05:33:38;32.88;;;18.88;;
4521;SDS011;2273;48.464;11.926;2023-03-01T05:36:05;39.10;;;20.08;;
4521;SDS011;2273;48.464;11.926;2023-03-01T05:38:32;30.60;;;18.88;;
4521;SDS011;2273;48.464;11.926;2023-03-01T05:40:57;32.00;;;18.67;;
4521;SDS011;2273;48.464;11.926;2023-03-01T05:43:23;34.87;;;18.50;;
4521;SDS011;2273;48.464;11.926;2023-03-01T05:45:48;36.43;;;18.50;;
4521;SDS011;2273;48.464;11.926;2023-03-01T05:48:14;33.03;;;19.07;;
4521;SDS011;2273;48.464;11.926;2023-03-01T05:50:40;35.70;;;19.00;;
4521;SDS011;2273;48.464;11.926;2023-03-01T05:53:11;35.80;;;18.77;;
4521;SDS011;2273;48.464;11.926;2023-03-01T05:55:42;33.55;;;18.60;;
4521;SDS011;2273;48.464;11.926;2023-03-01T05:58:09;37.58;;;20.58;;
4521;SDS011;2273;48.464;11.926;2023-03-01T06:00:36;32.63;;;19.25;;
4521;SDS011;2273;48.464;11.926;2023-03-01T06:03:02;34.77;;;19.00;;
4521;SDS011;2273;48.464;11.926;2023-03-01T06:05:28;35.40;;;19.73;;
4521;SDS011;2273;48.464;11.926;2023-03-01T06:07:53;37.03;;;19.00;;
4521;SDS011;2273;48.464;11.926;2023-03-01T06:10:20;34.27;;;19.20;;
4521;SDS011;2273;48.464;11.926;2023-03-01T06:12:46;36.58;;;19.38;;
4521;SDS011;2273;48.464;11.926;2023-03-01T06:15:12;35.83;;;19.17;;
4521;SDS011;2273;48.464;11.926;2023-03-01T06:17:39;34.92;;;18.75;;
4521;SDS011;2273;48.464;11.926;2023-03-01T06:20:10;36.00;;;20.60;;
4521;SDS011;2273;48.464;11.926;2023-03-01T06:22:38;34.03;;;19.15;;
4521;SDS011;2273;48.464;11.926;2023-03-01T06:25:04;34.55;;;19.63;;
4521;SDS011;2273;48.464;11.926;2023-03-01T06:27:30;35.83;;;19.58;;
4521;SDS011;2273;48.464;11.926;2023-03-01T06:29:55;37.33;;;18.93;;
4521;SDS011;2273;48.464;11.926;2023-03-01T06:32:21;35.30;;;19.27;;
4521;SDS011;2273;48.464;11.926;2023-03-01T06:34:46;41.07;;;19.70;;
4521;SDS011;2273;48.464;11.926;2023-03-01T06:37:11;40.43;;;19.47;;
4521;SDS011;2273;48.464;11.926;2023-03-01T06:39:37;34.47;;;20.00;;
4521;SDS011;2273;48.464;11.926;2023-03-01T06:42:02;35.63;;;18.80;;
4521;SDS011;2273;48.464;11.926;2023-03-01T06:44:28;39.28;;;20.08;;
4521;SDS011;2273;48.464;11.926;2023-03-01T06:46:54;37.50;;;20.97;;
4521;SDS011;2273;48.464;11.926;2023-03-01T06:49:20;48.83;;;20.95;;
4521;SDS011;2273;48.464;11.926;2023-03-01T06:51:46;40.03;;;20.83;;
4521;SDS011;2273;48.464;11.926;2023-03-01T06:54:11;35.77;;;20.13;;
4521;SDS011;2273;48.464;11.926;2023-03-01T06:56:37;41.53;;;20.63;;
4521;SDS011;2273;48.464;11.926;2023-03-01T06:59:02;38.90;;;21.70;;
4521;SDS011;2273;48.464;11.926;2023-03-01T07:01:28;39.13;;;21.47;;
4521;SDS011;2273;48.464;11.926;2023-03-01T07:03:54;40.28;;;21.38;;
4521;SDS011;2273;48.464;11.926;2023-03-01T07:06:20;38.30;;;22.27;;
4521;SDS011;2273;48.464;11.926;2023-03-01T07:08:45;40.23;;;21.70;;
4521;SDS011;2273;48.464;11.926;2023-03-01T07:11:11;36.73;;;21.07;;
4521;SDS011;2273;48.464;11.926;2023-03-01T07:13:36;41.67;;;22.20;;
4521;SDS011;2273;48.464;11.926;2023-03-01T07:16:02;36.20;;;19.83;;
4521;SDS011;2273;48.464;11.926;2023-03-01T07:18:27;36.10;;;21.17;;
4521;SDS011;2273;48.464;11.926;2023-03-01T07:20:52;40.17;;;21.23;;
4521;SDS011;2273;48.464;11.926;2023-03-01T07:23:18;38.17;;;20.70;;
4521;SDS011;2273;48.464;11.926;2023-03-01T07:25:43;38.77;;;20.40;;
4521;SDS011;2273;48.464;11.926;2023-03-01T07:28:09;39.23;;;20.90;;
4521;SDS011;2273;48.464;11.926;2023-03-01T07:30:34;37.37;;;20.53;;
4521;SDS011;2273;48.464;11.926;2023-03-01T07:32:59;38.80;;;20.50;;
4521;SDS011;2273;48.464;11.926;2023-03-01T07:35:26;37.63;;;19.83;;
4521;SDS011;2273;48.464;11.926;2023-03-01T07:37:52;38.38;;;20.00;;
4521;SDS011;2273;48.464;11.926;2023-03-01T07:40:18;43.47;;;20.75;;
4521;SDS011;2273;48.464;11.926;2023-03-01T07:42:43;37.17;;;20.57;;
4521;SDS011;2273;48.464;11.926;2023-03-01T07:45:09;46.90;;;21.43;;
4521;SDS011;2273;48.464;11.926;2023-03-01T07:47:35;38.40;;;20.80;;
4521;SDS011;2273;48.464;11.926;2023-03-01T07:50:00;37.57;;;21.00;;
4521;SDS011;2273;48.464;11.926;2023-03-01T07:52:29;39.03;;;21.25;;
4521;SDS011;2273;48.464;11.926;2023-03-01T07:54:55;46.13;;;22.88;;
4521;SDS011;2273;48.464;11.926;2023-03-01T07:57:21;36.10;;;20.60;;
4521;SDS011;2273;48.464;11.926;2023-03-01T07:59:46;39.87;;;21.77;;
4521;SDS011;2273;48.464;11.926;2023-03-01T08:02:12;35.07;;;21.73;;
4521;SDS011;2273;48.464;11.926;2023-03-01T08:04:37;36.87;;;19.70;;
4521;SDS011;2273;48.464;11.926;2023-03-01T08:07:04;36.87;;;20.53;;
4521;SDS011;2273;48.464;11.926;2023-03-01T08:09:30;47.60;;;21.20;;
4521;SDS011;2273;48.464;11.926;2023-03-01T08:11:56;44.40;;;20.60;;
4521;SDS011;2273;48.464;11.926;2023-03-01T08:14:22;35.55;;;19.67;;
4521;SDS011;2273;48.464;11.926;2023-03-01T08:16:51;37.83;;;21.00;;
4521;SDS011;2273;48.464;11.926;2023-03-01T08:19:16;37.15;;;19.83;;
4521;SDS011;2273;48.464;11.926;2023-03-01T08:21:41;39.80;;;21.60;;
4521;SDS011;2273;48.464;11.926;2023-03-01T08:24:07;50.53;;;20.50;;
4521;SDS011;2273;48.464;11.926;2023-03-01T08:26:35;43.72;;;22.25;;
4521;SDS011;2273;48.464;11.926;2023-03-01T08:29:00;38.00;;;21.03;;
4521;SDS011;2273;48.464;11.926;2023-03-01T08:31:29;36.50;;;20.60;;
4521;SDS011;2273;48.464;11.926;2023-03-01T08:33:58;35.33;;;19.20;;
4521;SDS011;2273;48.464;11.926;2023-03-01T08:36:28;36.03;;;17.73;;
4521;SDS011;2273;48.464;11.926;2023-03-01T08:38:55;34.60;;;19.85;;
4521;SDS011;2273;48.464;11.926;2023-03-01T08:41:21;34.80;;;19.57;;
4521;SDS011;2273;48.464;11.926;2023-03-01T08:43:47;32.83;;;19.70;;
4521;SDS011;2273;48.464;11.926;2023-03-01T08:46:12;36.53;;;18.10;;
4521;SDS011;2273;48.464;11.926;2023-03-01T08:48:38;33.07;;;18.93;;
4521;SDS011;2273;48.464;11.926;2023-03-01T08:51:11;37.83;;;19.63;;
4521;SDS011;2273;48.464;11.926;2023-03-01T08:53:38;32.90;;;18.75;;
4521;SDS011;2273;48.464;11.926;2023-03-01T08:56:04;30.73;;;17.87;;
4521;SDS011;2273;48.464;11.926;2023-03-01T08:58:29;34.17;;;18.70;;
4521;SDS011;2273;48.464;11.926;2023-03-01T09:00:55;34.47;;;18.83;;
4521;SDS011;2273;48.464;11.926;2023-03-01T09:03:23;36.80;;;20.02;;
4521;SDS011;2273;48.464;11.926;2023-03-01T09:05:49;34.07;;;19.20;;
4521;SDS011;2273;48.464;11.926;2023-03-01T09:08:16;30.10;;;18.25;;
4521;SDS011;2273;48.464;11.926;2023-03-01T09:10:42;35.58;;;20.15;;
4521;SDS011;2273;48.464;11.926;2023-03-01T09:13:07;34.50;;;17.97;;
4521;SDS011;2273;48.464;11.926;2023-03-01T09:15:33;35.67;;;19.43;;
4521;SDS011;2273;48.464;11.926;2023-03-01T09:17:59;34.23;;;18.57;;
4521;SDS011;2273;48.464;11.926;2023-03-01T09:20:24;42.20;;;19.67;;
4521;SDS011;2273;48.464;11.926;2023-03-01T09:22:50;28.80;;;18.20;;
4521;SDS011;2273;48.464;11.926;2023-03-01T09:25:15;34.23;;;18.17;;
4521;SDS011;2273;48.464;11.926;2023-03-01T09:27:41;33.23;;;19.00;;
4521;SDS011;2273;48.464;11.926;2023-03-01T09:30:07;40.20;;;18.98;;
4521;SDS011;2273;48.464;11.926;2023-03-01T09:32:33;33.67;;;18.60;;
4521;SDS011;2273;48.464;11.926;2023-03-01T09:34:58;35.07;;;18.40;;
4521;SDS011;2273;48.464;11.926;2023-03-01T09:37:29;37.55;;;18.73;;
4521;SDS011;2273;48.464;11.926;2023-03-01T09:39:56;35.08;;;19.60;;
4521;SDS011;2273;48.464;11.926;2023-03-01T09:42:21;34.50;;;18.23;;
4521;SDS011;2273;48.464;11.926;2023-03-01T09:44:57;39.60;;;19.73;;
4521;SDS011;2273;48.464;11.926;2023-03-01T09:47:27;31.80;;;18.63;;
4521;SDS011;2273;48.464;11.926;2023-03-01T09:52:46;38.10;;;19.95;;
4521;SDS011;2273;48.464;11.926;2023-03-01T09:55:16;36.75;;;20.42;;
4521;SDS011;2273;48.464;11.926;2023-03-01T09:57:48;37.78;;;20.92;;
4521;SDS011;2273;48.464;11.926;2023-03-01T10:03:06;33.55;;;19.42;;
4521;SDS011;2273;48.464;11.926;2023-03-01T10:05:39;37.65;;;19.00;;
4521;SDS011;2273;48.464;11.926;2023-03-01T10:11:03;32.55;;;19.75;;
4521;SDS011;2273;48.464;11.926;2023-03-01T10:16:16;39.33;;;19.27;;
4521;SDS011;2273;48.464;11.926;2023-03-01T10:18:47;31.77;;;18.95;;
4521;SDS011;2273;48.464;11.926;2023-03-01T10:21:19;32.85;;;20.67;;
4521;SDS011;2273;48.464;11.926;2023-03-01T10:23:45;32.70;;;19.70;;
4521;SDS011;2273;48.464;11.926;2023-03-01T10:26:27;32.08;;;18.67;;
4521;SDS011;2273;48.464;11.926;2023-03-01T10:29:07;37.03;;;18.63;;
4521;SDS011;2273;48.464;11.926;2023-03-01T10:31:44;33.80;;;17.58;;
4521;SDS011;2273;48.464;11.926;2023-03-01T10:34:19;36.45;;;17.50;;
4521;SDS011;2273;48.464;11.926;2023-03-01T10:36:52;31.10;;;17.48;;
4521;SDS011;2273;48.464;11.926;2023-03-01T10:39:22;37.20;;;21.02;;
4521;SDS011;2273;48.464;11.926;2023-03-01T10:42:18;35.30;;;19.80;;
4521;SDS011;2273;48.464;11.926;2023-03-01T10:44:52;33.83;;;18.95;;
4521;SDS011;2273;48.464;11.926;2023-03-01T10:47:25;31.30;;;19.30;;
4521;SDS011;2273;48.464;11.926;2023-03-01T10:49:53;32.58;;;18.70;;
4521;SDS011;2273;48.464;11.926;2023-03-01T10:52:24;32.75;;;18.98;;
4521;SDS011;2273;48.464;11.926;2023-03-01T10:54:58;32.97;;;18.23;;
4521;SDS011;2273;48.464;11.926;2023-03-01T10:57:28;29.00;;;17.40;;
4521;SDS011;2273;48.464;11.926;2023-03-01T11:02:47;27.80;;;17.40;;
4521;SDS011;2273;48.464;11.926;2023-03-01T11:05:25;32.13;;;19.60;;
4521;SDS011;2273;48.464;11.926;2023-03-01T11:07:52;32.30;;;17.50;;
4521;SDS011;2273;48.464;11.926;2023-03-01T11:10:19;28.25;;;17.15;;
4521;SDS011;2273;48.464;11.926;2023-03-01T11:12:46;36.57;;;19.63;;
4521;SDS011;2273;48.464;11.926;2023-03-01T11:15:25;34.17;;;19.00;;
4521;SDS011;2273;48.464;11.926;2023-03-01T11:17:52;31.57;;;17.93;;
4521;SDS011;2273;48.464;11.926;2023-03-01T11:22:56;28.52;;;17.75;;
4521;SDS011;2273;48.464;11.926;2023-03-01T11:25:44;28.20;;;17.17;;
4521;SDS011;2273;48.464;11.926;2023-03-01T11:28:22;27.60;;;16.90;;
4521;SDS011;2273;48.464;11.926;2023-03-01T11:30:53;25.10;;;15.30;;
4521;SDS011;2273;48.464;11.926;2023-03-01T11:36:34;26.37;;;16.40;;
4521;SDS011;2273;48.464;11.926;2023-03-01T11:39:02;30.53;;;17.73;;
4521;SDS011;2273;48.464;11.926;2023-03-01T11:41:31;32.50;;;16.73;;
4521;SDS011;2273;48.464;11.926;2023-03-01T11:46:48;31.73;;;17.60;;
4521;SDS011;2273;48.464;11.926;2023-03-01T11:57:20;32.40;;;19.43;;
4521;SDS011;2273;48.464;11.926;2023-03-01T12:14:02;29.17;;;18.03;;
4521;SDS011;2273;48.464;11.926;2023-03-01T12:38:05;26.13;;;15.90;;
4521;SDS011;2273;48.464;11.926;2023-03-01T12:43:25;26.23;;;15.50;;
4521;SDS011;2273;48.464;11.926;2023-03-01T12:51:38;29.90;;;17.10;;
4521;SDS011;2273;48.464;11.926;2023-03-01T12:54:26;27.10;;;18.30;;
4521;SDS011;2273;48.464;11.926;2023-03-01T12:56:53;31.13;;;17.87;;
4521;SDS011;2273;48.464;11.926;2023-03-01T12:59:36;33.03;;;19.97;;
4521;SDS011;2273;48.464;11.926;2023-03-01T13:07:23;28.90;;;17.60;;
4521;SDS011;2273;48.464;11.926;2023-03-01T13:12:42;29.80;;;15.47;;
4521;SDS011;2273;48.464;11.926;2023-03-01T13:17:49;24.13;;;15.53;;
4521;SDS011;2273;48.464;11.926;2023-03-01T13:20:17;23.27;;;15.20;;
4521;SDS011;2273;48.464;11.926;2023-03-01T13:22:45;24.53;;;14.90;;
4521;SDS011;2273;48.464;11.926;2023-03-01T13:25:15;21.37;;;15.07;;
4521;SDS011;2273;48.464;11.926;2023-03-01T13:27:43;23.70;;;15.27;;
4521;SDS011;2273;48.464;11.926;2023-03-01T13:35:51;23.73;;;15.00;;
4521;SDS011;2273;48.464;11.926;2023-03-01T13:39:00;24.33;;;14.83;;
4521;SDS011;2273;48.464;11.926;2023-03-01T13:41:06;24.60;;;15.07;;
4521;SDS011;2273;48.464;11.926;2023-03-01T13:43:32;28.27;;;14.90;;
4521;SDS011;2273;48.464;11.926;2023-03-01T13:46:01;24.20;;;14.30;;
4521;SDS011;2273;48.464;11.926;2023-03-01T13:48:32;25.10;;;15.20;;
4521;SDS011;2273;48.464;11.926;2023-03-01T13:50:59;27.63;;;16.77;;
4521;SDS011;2273;48.464;11.926;2023-03-01T13:53:27;23.63;;;14.80;;
4521;SDS011;2273;48.464;11.926;2023-03-01T13:55:55;29.00;;;15.00;;
4521;SDS011;2273;48.464;11.926;2023-03-01T13:58:33;28.47;;;16.57;;
4521;SDS011;2273;48.464;11.926;2023-03-01T14:01:36;22.50;;;13.90;;
4521;SDS011;2273;48.464;11.926;2023-03-01T14:04:03;22.50;;;13.77;;
4521;SDS011;2273;48.464;11.926;2023-03-01T14:06:39;23.70;;;14.97;;
4521;SDS011;2273;48.464;11.926;2023-03-01T14:19:54;26.63;;;15.00;;
4521;SDS011;2273;48.464;11.926;2023-03-01T14:24:54;23.73;;;14.73;;
4521;SDS011;2273;48.464;11.926;2023-03-01T14:27:28;30.20;;;16.30;;
4521;SDS011;2273;48.464;11.926;2023-03-01T14:29:56;30.50;;;17.50;;
4521;SDS011;2273;48.464;11.926;2023-03-01T14:32:27;25.33;;;16.50;;
4521;SDS011;2273;48.464;11.926;2023-03-01T14:34:53;33.87;;;16.50;;
4521;SDS011;2273;48.464;11.926;2023-03-01T14:39:51;22.63;;;15.10;;
4521;SDS011;2273;48.464;11.926;2023-03-01T14:42:17;26.30;;;15.77;;
4521;SDS011;2273;48.464;11.926;2023-03-01T14:44:45;29.50;;;17.33;;
4521;SDS011;2273;48.464;11.926;2023-03-01T14:47:13;24.20;;;14.93;;
4521;SDS011;2273;48.464;11.926;2023-03-01T14:49:40;29.23;;;15.00;;
4521;SDS011;2273;48.464;11.926;2023-03-01T14:52:17;22.50;;;14.90;;
4521;SDS011;2273;48.464;11.926;2023-03-01T14:54:50;23.97;;;15.30;;
4521;SDS011;2273;48.464;11.926;2023-03-01T14:57:24;23.80;;;15.17;;
4521;SDS011;2273;48.464;11.926;2023-03-01T14:59:54;24.77;;;14.97;;
4521;SDS011;2273;48.464;11.926;2023-03-01T15:02:26;27.90;;;15.67;;
4521;SDS011;2273;48.464;11.926;2023-03-01T15:04:56;26.47;;;15.73;;
4521;SDS011;2273;48.464;11.926;2023-03-01T15:07:27;25.20;;;13.70;;
4521;SDS011;2273;48.464;11.926;2023-03-01T15:09:56;26.87;;;15.50;;
4521;SDS011;2273;48.464;11.926;2023-03-01T15:14:58;28.13;;;14.50;;
4521;SDS011;2273;48.464;11.926;2023-03-01T15:17:31;24.37;;;13.50;;
4521;SDS011;2273;48.464;11.926;2023-03-01T15:19:57;33.33;;;15.63;;
4521;SDS011;2273;48.464;11.926;2023-03-01T15:22:22;28.20;;;14.30;;
4521;SDS011;2273;48.464;11.926;2023-03-01T15:24:49;27.23;;;15.43;;
4521;SDS011;2273;48.464;11.926;2023-03-01T15:27:16;25.27;;;14.33;;
4521;SDS011;2273;48.464;11.926;2023-03-01T15:29:52;30.30;;;13.93;;
4521;SDS011;2273;48.464;11.926;2023-03-01T15:32:33;22.60;;;14.20;;
4521;SDS011;2273;48.464;11.926;2023-03-01T15:35:33;30.87;;;12.50;;
4521;SDS011;2273;48.464;11.926;2023-03-01T15:40:54;20.17;;;13.27;;
4521;SDS011;2273;48.464;11.926;2023-03-01T15:43:37;25.20;;;13.17;;
4521;SDS011;2273;48.464;11.926;2023-03-01T15:46:13;24.33;;;13.90;;
4521;SDS011;2273;48.464;11.926;2023-03-01T15:48:44;24.00;;;13.90;;
4521;SDS011;2273;48.464;11.926;2023-03-01T15:51:11;20.93;;;11.60;;
4521;SDS011;2273;48.464;11.926;2023-03-01T15:53:38;19.07;;;12.90;;
4521;SDS011;2273;48.464;11.926;2023-03-01T15:56:04;23.63;;;14.80;;
4521;SDS011;2273;48.464;11.926;2023-03-01T15:58:32;22.27;;;14.00;;
4521;SDS011;2273;48.464;11.926;2023-03-01T16:00:57;23.03;;;14.80;;
4521;SDS011;2273;48.464;11.926;2023-03-01T16:03:24;22.40;;;15.10;;
4521;SDS011;2273;48.464;11.926;2023-03-01T16:05:50;25.97;;;15.20;;
4521;SDS011;2273;48.464;11.926;2023-03-01T16:08:16;25.17;;;16.83;;
4521;SDS011;2273;48.464;11.926;2023-03-01T16:10:42;27.50;;;15.70;;
4521;SDS011;2273;48.464;11.926;2023-03-01T16:13:11;29.60;;;16.10;;
4521;SDS011;2273;48.464;11.926;2023-03-01T16:15:37;26.20;;;15.03;;
4521;SDS011;2273;48.464;11.926;2023-03-01T16:18:04;25.03;;;16.50;;
4521;SDS011;2273;48.464;11.926;2023-03-01T16:20:31;24.77;;;16.20;;
4521;SDS011;2273;48.464;11.926;2023-03-01T16:22:57;29.40;;;16.60;;
4521;SDS011;2273;48.464;11.926;2023-03-01T16:25:25;26.87;;;16.97;;
4521;SDS011;2273;48.464;11.926;2023-03-01T16:27:50;27.37;;;16.87;;
4521;SDS011;2273;48.464;11.926;2023-03-01T16:30:17;26.80;;;16.00;;
4521;SDS011;2273;48.464;11.926;2023-03-01T16:32:45;26.30;;;16.43;;
4521;SDS011;2273;48.464;11.926;2023-03-01T16:35:14;31.03;;;17.13;;
4521;SDS011;2273;48.464;11.926;2023-03-01T16:37:41;30.20;;;17.13;;
4521;SDS011;2273;48.464;11.926;2023-03-01T16:40:16;27.87;;;18.37;;
4521;SDS011;2273;48.464;11.926;2023-03-01T16:42:43;28.60;;;19.20;;